sensor_id;sensor_type;location;lat;lon;timestamp;temperature;humidity
516;DHT22;244;48.508;9.052;2023-10-08T00:00:05;13.70;10.10
516;DHT22;244;48.508;9.052;2023-10-08T00:02:48;13.60;10.10
516;DHT22;244;48.508;9.052;2023-10-08T00:05:15;13.70;10.30
516;DHT22;244;48.508;9.052;2023-10-08T00:07:45;13.70;10.30
516;DHT22;244;48.508;9.052;2023-10-08T00:10:12;13.70;10.40
516;DHT22;244;48.508;9.052;2023-10-08T00:12:41;13.70;10.50
516;DHT22;244;48.508;9.052;2023-10-08T00:15:09;13.70;10.50
516;DHT22;244;48.508;9.052;2023-10-08T00:17:37;13.70;10.50
516;DHT22;244;48.508;9.052;2023-10-08T00:20:05;13.70;10.50
516;DHT22;244;48.508;9.052;2023-10-08T00:22:33;13.70;10.50
516;DHT22;244;48.508;9.052;2023-10-08T00:25:09;13.70;10.50
516;DHT22;244;48.508;9.052;2023-10-08T00:27:37;13.80;10.60
516;DHT22;244;48.508;9.052;2023-10-08T00:30:06;13.70;10.50
516;DHT22;244;48.508;9.052;2023-10-08T00:32:43;13.80;10.60
516;DHT22;244;48.508;9.052;2023-10-08T00:35:16;13.80;10.60
516;DHT22;244;48.508;9.052;2023-10-08T00:37:46;13.70;10.60
516;DHT22;244;48.508;9.052;2023-10-08T00:40:18;13.70;10.60
516;DHT22;244;48.508;9.052;2023-10-08T00:42:50;13.70;10.70
516;DHT22;244;48.508;9.052;2023-10-08T00:45:22;13.70;10.70
516;DHT22;244;48.508;9.052;2023-10-08T00:47:49;13.80;10.70
516;DHT22;244;48.508;9.052;2023-10-08T00:50:21;13.70;10.70
516;DHT22;244;48.508;9.052;2023-10-08T00:53:11;13.70;10.60
516;DHT22;244;48.508;9.052;2023-10-08T00:55:48;13.70;10.60
516;DHT22;244;48.508;9.052;2023-10-08T00:58:20;13.60;10.50
516;DHT22;244;48.508;9.052;2023-10-08T01:00:55;13.60;10.50
516;DHT22;244;48.508;9.052;2023-10-08T01:03:26;13.60;10.60
516;DHT22;244;48.508;9.052;2023-10-08T01:05:54;13.60;10.70
516;DHT22;244;48.508;9.052;2023-10-08T01:08:21;13.50;10.70
516;DHT22;244;48.508;9.052;2023-10-08T01:11:20;13.50;10.80
516;DHT22;244;48.508;9.052;2023-10-08T01:13:56;13.50;10.90
516;DHT22;244;48.508;9.052;2023-10-08T01:16:25;13.40;10.90
516;DHT22;244;48.508;9.052;2023-10-08T01:18:53;13.40;11.00
516;DHT22;244;48.508;9.052;2023-10-08T01:21:20;13.40;11.10
516;DHT22;244;48.508;9.052;2023-10-08T01:24:04;13.30;11.00
516;DHT22;244;48.508;9.052;2023-10-08T01:26:33;13.30;11.10
516;DHT22;244;48.508;9.052;2023-10-08T01:29:04;13.20;11.10
516;DHT22;244;48.508;9.052;2023-10-08T01:31:32;13.20;11.10
516;DHT22;244;48.508;9.052;2023-10-08T01:33:59;13.20;11.20
516;DHT22;244;48.508;9.052;2023-10-08T01:36:30;13.20;11.80
516;DHT22;244;48.508;9.052;2023-10-08T01:38:57;13.20;11.30
516;DHT22;244;48.508;9.052;2023-10-08T01:41:29;13.20;11.40
516;DHT22;244;48.508;9.052;2023-10-08T01:43:56;13.20;11.50
516;DHT22;244;48.508;9.052;2023-10-08T01:46:25;13.10;11.60
516;DHT22;244;48.508;9.052;2023-10-08T01:48:53;13.10;11.60
516;DHT22;244;48.508;9.052;2023-10-08T01:51:26;13.10;11.70
516;DHT22;244;48.508;9.052;2023-10-08T01:54:02;13.20;11.70
516;DHT22;244;48.508;9.052;2023-10-08T01:56:37;13.20;11.80
516;DHT22;244;48.508;9.052;2023-10-08T01:59:07;13.20;11.80
516;DHT22;244;48.508;9.052;2023-10-08T02:01:35;13.20;11.90
516;DHT22;244;48.508;9.052;2023-10-08T02:04:04;13.10;11.80
516;DHT22;244;48.508;9.052;2023-10-08T02:06:32;13.10;11.90
516;DHT22;244;48.508;9.052;2023-10-08T02:08:59;13.10;12.00
516;DHT22;244;48.508;9.052;2023-10-08T02:11:40;13.10;12.00
516;DHT22;244;48.508;9.052;2023-10-08T02:14:13;13.20;12.10
516;DHT22;244;48.508;9.052;2023-10-08T02:16:44;13.10;12.10
516;DHT22;244;48.508;9.052;2023-10-08T02:19:11;13.10;12.20
516;DHT22;244;48.508;9.052;2023-10-08T02:21:40;13.10;12.30
516;DHT22;244;48.508;9.052;2023-10-08T02:24:12;13.00;12.30
516;DHT22;244;48.508;9.052;2023-10-08T02:26:39;12.90;12.40
516;DHT22;244;48.508;9.052;2023-10-08T02:29:10;13.00;12.50
516;DHT22;244;48.508;9.052;2023-10-08T02:31:37;12.90;12.40
516;DHT22;244;48.508;9.052;2023-10-08T02:34:07;12.90;12.40
516;DHT22;244;48.508;9.052;2023-10-08T02:36:34;12.80;12.50
516;DHT22;244;48.508;9.052;2023-10-08T02:39:03;12.80;12.60
516;DHT22;244;48.508;9.052;2023-10-08T02:41:39;12.80;12.70
516;DHT22;244;48.508;9.052;2023-10-08T02:44:08;12.80;12.70
516;DHT22;244;48.508;9.052;2023-10-08T02:46:39;12.70;12.70
516;DHT22;244;48.508;9.052;2023-10-08T02:49:08;12.70;12.70
516;DHT22;244;48.508;9.052;2023-10-08T02:51:37;12.60;12.80
516;DHT22;244;48.508;9.052;2023-10-08T02:54:05;12.60;12.90
516;DHT22;244;48.508;9.052;2023-10-08T02:56:42;12.60;13.00
516;DHT22;244;48.508;9.052;2023-10-08T02:59:10;12.50;13.00
516;DHT22;244;48.508;9.052;2023-10-08T03:01:42;12.50;13.10
516;DHT22;244;48.508;9.052;2023-10-08T03:04:09;12.50;13.30
516;DHT22;244;48.508;9.052;2023-10-08T03:06:44;12.40;13.20
516;DHT22;244;48.508;9.052;2023-10-08T03:09:14;12.40;13.30
516;DHT22;244;48.508;9.052;2023-10-08T03:11:46;12.40;13.40
516;DHT22;244;48.508;9.052;2023-10-08T03:14:14;12.40;13.50
516;DHT22;244;48.508;9.052;2023-10-08T03:16:49;12.40;13.50
516;DHT22;244;48.508;9.052;2023-10-08T03:19:18;12.40;13.70
516;DHT22;244;48.508;9.052;2023-10-08T03:21:46;12.40;13.80
516;DHT22;244;48.508;9.052;2023-10-08T03:24:20;12.30;13.70
516;DHT22;244;48.508;9.052;2023-10-08T03:27:03;12.30;13.80
516;DHT22;244;48.508;9.052;2023-10-08T03:29:38;12.30;13.80
516;DHT22;244;48.508;9.052;2023-10-08T03:32:09;12.30;13.90
516;DHT22;244;48.508;9.052;2023-10-08T03:34:43;12.30;14.00
516;DHT22;244;48.508;9.052;2023-10-08T03:37:12;12.30;14.00
516;DHT22;244;48.508;9.052;2023-10-08T03:39:45;12.30;14.10
516;DHT22;244;48.508;9.052;2023-10-08T03:42:26;12.40;14.10
516;DHT22;244;48.508;9.052;2023-10-08T03:45:00;12.40;14.10
516;DHT22;244;48.508;9.052;2023-10-08T03:47:37;12.40;14.10
516;DHT22;244;48.508;9.052;2023-10-08T03:50:06;12.50;14.20
516;DHT22;244;48.508;9.052;2023-10-08T03:52:35;12.50;14.10
516;DHT22;244;48.508;9.052;2023-10-08T03:55:05;12.50;14.00
516;DHT22;244;48.508;9.052;2023-10-08T03:57:46;12.50;14.10
516;DHT22;244;48.508;9.052;2023-10-08T04:00:22;12.50;14.20
516;DHT22;244;48.508;9.052;2023-10-08T04:02:58;12.50;14.20
516;DHT22;244;48.508;9.052;2023-10-08T04:05:34;12.40;14.20
516;DHT22;244;48.508;9.052;2023-10-08T04:08:09;12.50;14.40
516;DHT22;244;48.508;9.052;2023-10-08T04:10:50;12.40;14.30
516;DHT22;244;48.508;9.052;2023-10-08T04:13:51;12.40;14.40
516;DHT22;244;48.508;9.052;2023-10-08T04:16:18;12.30;14.40
516;DHT22;244;48.508;9.052;2023-10-08T04:18:47;12.30;14.50
516;DHT22;244;48.508;9.052;2023-10-08T04:21:17;12.30;14.50
516;DHT22;244;48.508;9.052;2023-10-08T04:23:46;12.30;14.60
516;DHT22;244;48.508;9.052;2023-10-08T04:26:17;12.30;14.70
516;DHT22;244;48.508;9.052;2023-10-08T04:28:43;12.20;14.70
516;DHT22;244;48.508;9.052;2023-10-08T04:31:14;12.20;14.80
516;DHT22;244;48.508;9.052;2023-10-08T04:33:44;12.20;14.80
516;DHT22;244;48.508;9.052;2023-10-08T04:36:14;12.20;14.80
516;DHT22;244;48.508;9.052;2023-10-08T04:38:45;12.20;14.80
516;DHT22;244;48.508;9.052;2023-10-08T04:41:14;12.20;14.90
516;DHT22;244;48.508;9.052;2023-10-08T04:43:47;12.20;14.90
516;DHT22;244;48.508;9.052;2023-10-08T04:46:16;12.20;14.90
516;DHT22;244;48.508;9.052;2023-10-08T04:48:59;12.20;15.00
516;DHT22;244;48.508;9.052;2023-10-08T04:51:32;12.20;15.00
516;DHT22;244;48.508;9.052;2023-10-08T04:54:09;12.20;15.00
516;DHT22;244;48.508;9.052;2023-10-08T04:56:37;12.30;15.10
516;DHT22;244;48.508;9.052;2023-10-08T04:59:04;12.30;15.20
516;DHT22;244;48.508;9.052;2023-10-08T05:01:34;12.30;15.20
516;DHT22;244;48.508;9.052;2023-10-08T05:04:14;12.30;15.20
516;DHT22;244;48.508;9.052;2023-10-08T05:06:53;12.30;15.20
516;DHT22;244;48.508;9.052;2023-10-08T05:09:37;12.30;15.10
516;DHT22;244;48.508;9.052;2023-10-08T05:12:13;12.30;15.10
516;DHT22;244;48.508;9.052;2023-10-08T05:15:00;12.30;15.10
516;DHT22;244;48.508;9.052;2023-10-08T05:17:58;12.30;15.10
516;DHT22;244;48.508;9.052;2023-10-08T05:20:39;12.30;15.20
516;DHT22;244;48.508;9.052;2023-10-08T05:23:21;12.20;15.20
516;DHT22;244;48.508;9.052;2023-10-08T05:26:08;12.30;15.20
516;DHT22;244;48.508;9.052;2023-10-08T05:28:46;12.20;15.20
516;DHT22;244;48.508;9.052;2023-10-08T05:31:27;12.20;15.30
516;DHT22;244;48.508;9.052;2023-10-08T05:34:12;12.20;15.30
516;DHT22;244;48.508;9.052;2023-10-08T05:36:48;12.20;15.30
516;DHT22;244;48.508;9.052;2023-10-08T05:39:33;12.20;15.30
516;DHT22;244;48.508;9.052;2023-10-08T05:42:08;12.20;15.40
516;DHT22;244;48.508;9.052;2023-10-08T05:44:39;12.20;15.50
516;DHT22;244;48.508;9.052;2023-10-08T05:47:11;12.20;15.50
516;DHT22;244;48.508;9.052;2023-10-08T05:50:05;12.20;15.60
516;DHT22;244;48.508;9.052;2023-10-08T05:52:49;12.10;15.50
516;DHT22;244;48.508;9.052;2023-10-08T05:55:32;12.10;15.50
516;DHT22;244;48.508;9.052;2023-10-08T05:58:07;12.10;15.60
516;DHT22;244;48.508;9.052;2023-10-08T06:00:50;12.10;15.60
516;DHT22;244;48.508;9.052;2023-10-08T06:03:34;12.10;15.60
516;DHT22;244;48.508;9.052;2023-10-08T06:06:25;12.10;15.60
516;DHT22;244;48.508;9.052;2023-10-08T06:09:06;12.10;15.50
516;DHT22;244;48.508;9.052;2023-10-08T06:12:01;12.10;15.50
516;DHT22;244;48.508;9.052;2023-10-08T06:14:45;12.10;15.50
516;DHT22;244;48.508;9.052;2023-10-08T06:17:29;12.20;15.50
516;DHT22;244;48.508;9.052;2023-10-08T06:20:22;12.20;15.50
516;DHT22;244;48.508;9.052;2023-10-08T06:22:52;12.30;15.60
516;DHT22;244;48.508;9.052;2023-10-08T06:25:26;12.30;15.60
516;DHT22;244;48.508;9.052;2023-10-08T06:27:55;12.30;15.60
516;DHT22;244;48.508;9.052;2023-10-08T06:30:23;12.40;15.70
516;DHT22;244;48.508;9.052;2023-10-08T06:32:50;12.40;15.60
516;DHT22;244;48.508;9.052;2023-10-08T06:35:19;12.50;15.60
516;DHT22;244;48.508;9.052;2023-10-08T06:37:51;12.50;16.10
516;DHT22;244;48.508;9.052;2023-10-08T06:40:20;12.60;15.50
516;DHT22;244;48.508;9.052;2023-10-08T06:43:05;12.60;15.50
516;DHT22;244;48.508;9.052;2023-10-08T06:45:41;12.60;15.40
516;DHT22;244;48.508;9.052;2023-10-08T06:48:08;12.70;15.40
516;DHT22;244;48.508;9.052;2023-10-08T06:50:43;12.80;15.50
516;DHT22;244;48.508;9.052;2023-10-08T06:53:11;12.80;15.40
516;DHT22;244;48.508;9.052;2023-10-08T06:55:39;12.90;15.40
516;DHT22;244;48.508;9.052;2023-10-08T06:58:08;12.90;15.30
516;DHT22;244;48.508;9.052;2023-10-08T07:00:37;13.00;15.30
516;DHT22;244;48.508;9.052;2023-10-08T07:03:08;13.00;15.20
516;DHT22;244;48.508;9.052;2023-10-08T07:05:39;13.10;15.20
516;DHT22;244;48.508;9.052;2023-10-08T07:08:20;13.20;15.10
516;DHT22;244;48.508;9.052;2023-10-08T07:10:49;13.30;15.00
516;DHT22;244;48.508;9.052;2023-10-08T07:13:18;13.40;14.90
516;DHT22;244;48.508;9.052;2023-10-08T07:15:48;13.50;14.90
516;DHT22;244;48.508;9.052;2023-10-08T07:18:16;13.60;14.80
516;DHT22;244;48.508;9.052;2023-10-08T07:20:51;13.80;14.70
516;DHT22;244;48.508;9.052;2023-10-08T07:23:26;14.00;14.60
516;DHT22;244;48.508;9.052;2023-10-08T07:25:56;14.10;14.50
516;DHT22;244;48.508;9.052;2023-10-08T07:28:30;14.20;14.40
516;DHT22;244;48.508;9.052;2023-10-08T07:31:01;14.40;14.30
516;DHT22;244;48.508;9.052;2023-10-08T07:33:28;14.50;14.10
516;DHT22;244;48.508;9.052;2023-10-08T07:36:02;14.70;13.90
516;DHT22;244;48.508;9.052;2023-10-08T07:38:37;14.80;13.70
516;DHT22;244;48.508;9.052;2023-10-08T07:41:04;14.90;13.80
516;DHT22;244;48.508;9.052;2023-10-08T07:43:33;15.00;13.60
516;DHT22;244;48.508;9.052;2023-10-08T07:46:00;15.10;13.40
516;DHT22;244;48.508;9.052;2023-10-08T07:48:27;15.20;13.40
516;DHT22;244;48.508;9.052;2023-10-08T07:50:56;15.20;13.30
516;DHT22;244;48.508;9.052;2023-10-08T07:53:23;15.30;13.20
516;DHT22;244;48.508;9.052;2023-10-08T07:56:03;15.40;13.10
516;DHT22;244;48.508;9.052;2023-10-08T07:58:33;15.60;13.00
516;DHT22;244;48.508;9.052;2023-10-08T08:01:03;15.80;12.80
516;DHT22;244;48.508;9.052;2023-10-08T08:03:34;16.00;12.60
516;DHT22;244;48.508;9.052;2023-10-08T08:06:07;16.20;12.40
516;DHT22;244;48.508;9.052;2023-10-08T08:08:36;16.40;12.10
516;DHT22;244;48.508;9.052;2023-10-08T08:11:07;16.60;11.90
516;DHT22;244;48.508;9.052;2023-10-08T08:13:39;16.80;11.70
516;DHT22;244;48.508;9.052;2023-10-08T08:16:11;17.00;11.40
516;DHT22;244;48.508;9.052;2023-10-08T08:18:44;17.10;11.00
516;DHT22;244;48.508;9.052;2023-10-08T08:21:18;17.30;10.80
516;DHT22;244;48.508;9.052;2023-10-08T08:23:52;17.40;11.00
516;DHT22;244;48.508;9.052;2023-10-08T08:26:30;17.50;11.00
516;DHT22;244;48.508;9.052;2023-10-08T08:29:09;17.60;10.80
516;DHT22;244;48.508;9.052;2023-10-08T08:31:40;17.70;10.70
516;DHT22;244;48.508;9.052;2023-10-08T08:34:14;17.70;10.50
516;DHT22;244;48.508;9.052;2023-10-08T08:36:46;17.80;10.40
516;DHT22;244;48.508;9.052;2023-10-08T08:39:19;17.90;10.30
516;DHT22;244;48.508;9.052;2023-10-08T08:41:59;17.90;10.20
516;DHT22;244;48.508;9.052;2023-10-08T08:44:30;18.00;10.20
516;DHT22;244;48.508;9.052;2023-10-08T08:47:00;18.00;10.00
516;DHT22;244;48.508;9.052;2023-10-08T08:49:33;18.00;10.00
516;DHT22;244;48.508;9.052;2023-10-08T08:52:03;18.00;9.80
516;DHT22;244;48.508;9.052;2023-10-08T08:54:30;18.10;9.80
516;DHT22;244;48.508;9.052;2023-10-08T08:56:59;18.20;9.70
516;DHT22;244;48.508;9.052;2023-10-08T08:59:34;18.20;9.60
516;DHT22;244;48.508;9.052;2023-10-08T09:02:02;18.40;9.50
516;DHT22;244;48.508;9.052;2023-10-08T09:04:33;18.50;9.40
516;DHT22;244;48.508;9.052;2023-10-08T09:07:03;18.60;9.20
516;DHT22;244;48.508;9.052;2023-10-08T09:09:33;18.80;9.10
516;DHT22;244;48.508;9.052;2023-10-08T09:12:01;18.90;8.90
516;DHT22;244;48.508;9.052;2023-10-08T09:14:31;19.00;8.70
516;DHT22;244;48.508;9.052;2023-10-08T09:17:00;19.20;8.60
516;DHT22;244;48.508;9.052;2023-10-08T09:19:36;19.30;8.40
516;DHT22;244;48.508;9.052;2023-10-08T09:22:04;19.40;8.20
516;DHT22;244;48.508;9.052;2023-10-08T09:24:32;19.60;8.00
516;DHT22;244;48.508;9.052;2023-10-08T09:27:02;19.70;7.90
516;DHT22;244;48.508;9.052;2023-10-08T09:29:31;19.80;7.80
516;DHT22;244;48.508;9.052;2023-10-08T09:32:03;19.90;7.70
516;DHT22;244;48.508;9.052;2023-10-08T09:34:34;20.10;7.50
516;DHT22;244;48.508;9.052;2023-10-08T09:37:03;20.20;7.30
516;DHT22;244;48.508;9.052;2023-10-08T09:39:34;20.30;7.20
516;DHT22;244;48.508;9.052;2023-10-08T09:42:01;20.50;7.00
516;DHT22;244;48.508;9.052;2023-10-08T09:44:31;20.60;6.80
516;DHT22;244;48.508;9.052;2023-10-08T09:47:06;20.80;6.60
516;DHT22;244;48.508;9.052;2023-10-08T09:49:38;21.00;6.40
516;DHT22;244;48.508;9.052;2023-10-08T09:52:08;21.10;6.20
516;DHT22;244;48.508;9.052;2023-10-08T09:54:41;21.30;6.00
516;DHT22;244;48.508;9.052;2023-10-08T09:57:10;21.50;5.90
516;DHT22;244;48.508;9.052;2023-10-08T09:59:40;21.80;5.50
516;DHT22;244;48.508;9.052;2023-10-08T10:02:08;22.10;5.00
516;DHT22;244;48.508;9.052;2023-10-08T10:04:41;22.40;5.10
516;DHT22;244;48.508;9.052;2023-10-08T10:07:10;22.70;4.80
516;DHT22;244;48.508;9.052;2023-10-08T10:09:39;22.90;4.30
516;DHT22;244;48.508;9.052;2023-10-08T10:12:06;23.20;4.10
516;DHT22;244;48.508;9.052;2023-10-08T10:14:42;23.40;3.80
516;DHT22;244;48.508;9.052;2023-10-08T10:17:13;23.60;3.50
516;DHT22;244;48.508;9.052;2023-10-08T10:19:41;23.80;3.30
516;DHT22;244;48.508;9.052;2023-10-08T10:22:13;23.90;3.10
516;DHT22;244;48.508;9.052;2023-10-08T10:24:41;24.00;2.80
516;DHT22;244;48.508;9.052;2023-10-08T10:27:12;24.20;2.60
516;DHT22;244;48.508;9.052;2023-10-08T10:29:43;24.30;2.30
516;DHT22;244;48.508;9.052;2023-10-08T10:32:11;24.50;2.20
516;DHT22;244;48.508;9.052;2023-10-08T10:34:41;24.60;1.90
516;DHT22;244;48.508;9.052;2023-10-08T10:37:09;24.70;1.80
516;DHT22;244;48.508;9.052;2023-10-08T10:39:51;24.70;1.60
516;DHT22;244;48.508;9.052;2023-10-08T10:42:20;24.70;1.40
516;DHT22;244;48.508;9.052;2023-10-08T10:44:49;24.70;1.40
516;DHT22;244;48.508;9.052;2023-10-08T10:47:19;24.60;1.20
516;DHT22;244;48.508;9.052;2023-10-08T10:50:08;24.60;1.10
516;DHT22;244;48.508;9.052;2023-10-08T10:52:52;24.50;1.00
516;DHT22;244;48.508;9.052;2023-10-08T10:55:20;24.60;1.00
516;DHT22;244;48.508;9.052;2023-10-08T10:57:49;24.70;1.00
516;DHT22;244;48.508;9.052;2023-10-08T11:00:31;24.80;1.00
516;DHT22;244;48.508;9.052;2023-10-08T11:03:22;25.00;1.00
516;DHT22;244;48.508;9.052;2023-10-08T11:05:56;25.20;1.00
516;DHT22;244;48.508;9.052;2023-10-08T11:08:25;25.40;1.00
516;DHT22;244;48.508;9.052;2023-10-08T11:10:59;25.70;1.00
516;DHT22;244;48.508;9.052;2023-10-08T11:13:33;25.90;1.00
516;DHT22;244;48.508;9.052;2023-10-08T11:16:07;26.30;1.00
516;DHT22;244;48.508;9.052;2023-10-08T11:18:35;26.60;1.00
516;DHT22;244;48.508;9.052;2023-10-08T11:21:09;26.90;1.00
516;DHT22;244;48.508;9.052;2023-10-08T11:23:43;27.10;1.00
516;DHT22;244;48.508;9.052;2023-10-08T11:26:12;27.30;1.00
516;DHT22;244;48.508;9.052;2023-10-08T11:28:42;27.50;1.00
516;DHT22;244;48.508;9.052;2023-10-08T11:31:12;27.60;1.00
516;DHT22;244;48.508;9.052;2023-10-08T11:33:40;27.70;1.00
516;DHT22;244;48.508;9.052;2023-10-08T11:36:09;27.80;1.00
516;DHT22;244;48.508;9.052;2023-10-08T11:38:47;27.80;1.00
516;DHT22;244;48.508;9.052;2023-10-08T11:41:17;27.90;1.00
516;DHT22;244;48.508;9.052;2023-10-08T11:43:54;28.00;1.00
516;DHT22;244;48.508;9.052;2023-10-08T11:46:25;28.00;1.00
516;DHT22;244;48.508;9.052;2023-10-08T11:48:54;28.10;1.00
516;DHT22;244;48.508;9.052;2023-10-08T11:51:24;28.10;1.00
516;DHT22;244;48.508;9.052;2023-10-08T11:53:50;28.10;1.00
516;DHT22;244;48.508;9.052;2023-10-08T11:56:19;28.10;1.00
516;DHT22;244;48.508;9.052;2023-10-08T11:58:49;28.10;1.00
516;DHT22;244;48.508;9.052;2023-10-08T12:01:17;28.10;1.00
516;DHT22;244;48.508;9.052;2023-10-08T12:03:47;28.20;1.00
516;DHT22;244;48.508;9.052;2023-10-08T12:06:16;28.20;1.00
516;DHT22;244;48.508;9.052;2023-10-08T12:08:45;28.30;1.00
516;DHT22;244;48.508;9.052;2023-10-08T12:11:13;28.30;1.00
516;DHT22;244;48.508;9.052;2023-10-08T12:13:41;28.30;1.00
516;DHT22;244;48.508;9.052;2023-10-08T12:16:12;28.40;1.00
516;DHT22;244;48.508;9.052;2023-10-08T12:18:45;28.40;1.00
516;DHT22;244;48.508;9.052;2023-10-08T12:21:15;28.40;1.00
516;DHT22;244;48.508;9.052;2023-10-08T12:23:43;28.30;1.00
516;DHT22;244;48.508;9.052;2023-10-08T12:26:12;28.30;1.00
516;DHT22;244;48.508;9.052;2023-10-08T12:28:44;28.20;1.00
516;DHT22;244;48.508;9.052;2023-10-08T12:31:14;28.20;1.00
516;DHT22;244;48.508;9.052;2023-10-08T12:33:41;28.20;1.00
516;DHT22;244;48.508;9.052;2023-10-08T12:36:10;28.30;1.00
516;DHT22;244;48.508;9.052;2023-10-08T12:38:40;28.50;1.00
516;DHT22;244;48.508;9.052;2023-10-08T12:41:08;28.60;1.00
516;DHT22;244;48.508;9.052;2023-10-08T12:43:39;28.70;1.00
516;DHT22;244;48.508;9.052;2023-10-08T12:46:08;28.80;1.00
516;DHT22;244;48.508;9.052;2023-10-08T12:48:43;29.00;1.00
516;DHT22;244;48.508;9.052;2023-10-08T12:51:14;29.00;1.00
516;DHT22;244;48.508;9.052;2023-10-08T12:53:43;29.00;1.00
516;DHT22;244;48.508;9.052;2023-10-08T12:56:18;29.00;1.00
516;DHT22;244;48.508;9.052;2023-10-08T12:58:57;29.00;1.00
516;DHT22;244;48.508;9.052;2023-10-08T13:01:25;29.00;1.00
516;DHT22;244;48.508;9.052;2023-10-08T13:03:54;29.00;1.00
516;DHT22;244;48.508;9.052;2023-10-08T13:06:27;29.00;1.00
516;DHT22;244;48.508;9.052;2023-10-08T13:08:57;28.90;1.00
516;DHT22;244;48.508;9.052;2023-10-08T13:11:27;28.90;1.00
516;DHT22;244;48.508;9.052;2023-10-08T13:13:58;28.80;1.00
516;DHT22;244;48.508;9.052;2023-10-08T13:16:26;28.80;1.00
516;DHT22;244;48.508;9.052;2023-10-08T13:18:56;28.80;1.00
516;DHT22;244;48.508;9.052;2023-10-08T13:21:24;28.70;1.00
516;DHT22;244;48.508;9.052;2023-10-08T13:23:51;28.70;1.00
516;DHT22;244;48.508;9.052;2023-10-08T13:26:20;28.60;1.00
516;DHT22;244;48.508;9.052;2023-10-08T13:28:50;28.60;1.00
516;DHT22;244;48.508;9.052;2023-10-08T13:31:17;28.50;1.00
516;DHT22;244;48.508;9.052;2023-10-08T13:33:45;28.50;1.00
516;DHT22;244;48.508;9.052;2023-10-08T13:36:17;28.40;1.00
516;DHT22;244;48.508;9.052;2023-10-08T13:38:45;28.40;1.00
516;DHT22;244;48.508;9.052;2023-10-08T13:41:13;28.40;1.00
516;DHT22;244;48.508;9.052;2023-10-08T13:43:46;28.30;1.00
516;DHT22;244;48.508;9.052;2023-10-08T13:46:17;28.30;1.00
516;DHT22;244;48.508;9.052;2023-10-08T13:48:56;28.30;1.00
516;DHT22;244;48.508;9.052;2023-10-08T13:51:29;28.40;1.00
516;DHT22;244;48.508;9.052;2023-10-08T13:54:00;28.40;1.00
516;DHT22;244;48.508;9.052;2023-10-08T13:56:32;28.50;1.00
516;DHT22;244;48.508;9.052;2023-10-08T13:59:02;28.50;1.00
516;DHT22;244;48.508;9.052;2023-10-08T14:01:38;28.60;1.00
516;DHT22;244;48.508;9.052;2023-10-08T14:04:06;28.70;1.00
516;DHT22;244;48.508;9.052;2023-10-08T14:06:39;28.70;1.00
516;DHT22;244;48.508;9.052;2023-10-08T14:09:08;28.70;1.00
516;DHT22;244;48.508;9.052;2023-10-08T14:11:38;28.80;1.00
516;DHT22;244;48.508;9.052;2023-10-08T14:14:06;28.80;1.00
516;DHT22;244;48.508;9.052;2023-10-08T14:16:38;28.90;1.00
516;DHT22;244;48.508;9.052;2023-10-08T14:19:08;28.90;1.00
516;DHT22;244;48.508;9.052;2023-10-08T14:21:38;29.00;1.00
516;DHT22;244;48.508;9.052;2023-10-08T14:24:15;29.00;1.00
516;DHT22;244;48.508;9.052;2023-10-08T14:26:42;29.10;1.00
516;DHT22;244;48.508;9.052;2023-10-08T14:29:10;29.10;1.00
516;DHT22;244;48.508;9.052;2023-10-08T14:31:41;29.20;1.00
516;DHT22;244;48.508;9.052;2023-10-08T14:34:10;29.20;1.00
516;DHT22;244;48.508;9.052;2023-10-08T14:36:55;29.30;1.00
516;DHT22;244;48.508;9.052;2023-10-08T14:39:39;29.30;1.00
516;DHT22;244;48.508;9.052;2023-10-08T14:42:23;29.30;1.00
516;DHT22;244;48.508;9.052;2023-10-08T14:45:09;29.30;1.00
516;DHT22;244;48.508;9.052;2023-10-08T14:47:41;29.40;1.00
516;DHT22;244;48.508;9.052;2023-10-08T14:50:08;29.40;1.00
516;DHT22;244;48.508;9.052;2023-10-08T14:52:42;29.40;1.00
516;DHT22;244;48.508;9.052;2023-10-08T14:55:09;29.40;1.00
516;DHT22;244;48.508;9.052;2023-10-08T14:57:36;29.40;1.00
516;DHT22;244;48.508;9.052;2023-10-08T15:00:03;29.40;1.00
516;DHT22;244;48.508;9.052;2023-10-08T15:02:32;29.40;1.00
516;DHT22;244;48.508;9.052;2023-10-08T15:05:03;29.40;1.00
516;DHT22;244;48.508;9.052;2023-10-08T15:07:34;29.40;1.00
516;DHT22;244;48.508;9.052;2023-10-08T15:10:03;29.50;1.00
516;DHT22;244;48.508;9.052;2023-10-08T15:12:35;29.50;1.00
516;DHT22;244;48.508;9.052;2023-10-08T15:15:02;29.50;1.00
516;DHT22;244;48.508;9.052;2023-10-08T15:17:40;29.70;1.00
516;DHT22;244;48.508;9.052;2023-10-08T15:20:09;29.60;1.00
516;DHT22;244;48.508;9.052;2023-10-08T15:22:40;29.40;1.00
516;DHT22;244;48.508;9.052;2023-10-08T15:25:08;29.30;1.00
516;DHT22;244;48.508;9.052;2023-10-08T15:27:36;29.30;1.00
516;DHT22;244;48.508;9.052;2023-10-08T15:30:11;29.20;1.00
516;DHT22;244;48.508;9.052;2023-10-08T15:32:43;29.20;1.00
516;DHT22;244;48.508;9.052;2023-10-08T15:35:12;29.20;1.00
516;DHT22;244;48.508;9.052;2023-10-08T15:37:41;29.10;1.00
516;DHT22;244;48.508;9.052;2023-10-08T15:40:10;29.20;1.00
516;DHT22;244;48.508;9.052;2023-10-08T15:42:43;29.10;1.00
516;DHT22;244;48.508;9.052;2023-10-08T15:45:11;29.00;1.00
516;DHT22;244;48.508;9.052;2023-10-08T15:47:38;28.80;1.00
516;DHT22;244;48.508;9.052;2023-10-08T15:50:09;28.70;1.00
516;DHT22;244;48.508;9.052;2023-10-08T15:52:37;28.60;1.00
516;DHT22;244;48.508;9.052;2023-10-08T15:55:05;28.50;1.00
516;DHT22;244;48.508;9.052;2023-10-08T15:57:32;28.40;1.00
516;DHT22;244;48.508;9.052;2023-10-08T15:59:59;28.20;1.00
516;DHT22;244;48.508;9.052;2023-10-08T16:02:26;28.10;1.00
516;DHT22;244;48.508;9.052;2023-10-08T16:04:53;28.00;1.00
516;DHT22;244;48.508;9.052;2023-10-08T16:07:21;27.80;1.00
516;DHT22;244;48.508;9.052;2023-10-08T16:09:48;27.70;1.00
516;DHT22;244;48.508;9.052;2023-10-08T16:12:15;27.50;1.00
516;DHT22;244;48.508;9.052;2023-10-08T16:14:43;27.20;1.00
516;DHT22;244;48.508;9.052;2023-10-08T16:17:11;27.00;1.00
516;DHT22;244;48.508;9.052;2023-10-08T16:19:41;26.70;1.00
516;DHT22;244;48.508;9.052;2023-10-08T16:22:08;26.40;1.00
516;DHT22;244;48.508;9.052;2023-10-08T16:24:41;26.20;1.00
516;DHT22;244;48.508;9.052;2023-10-08T16:27:08;26.00;1.00
516;DHT22;244;48.508;9.052;2023-10-08T16:29:35;25.70;1.00
516;DHT22;244;48.508;9.052;2023-10-08T16:32:03;25.50;1.00
516;DHT22;244;48.508;9.052;2023-10-08T16:34:32;25.30;1.00
516;DHT22;244;48.508;9.052;2023-10-08T16:37:00;25.10;1.00
516;DHT22;244;48.508;9.052;2023-10-08T16:39:27;24.90;1.00
516;DHT22;244;48.508;9.052;2023-10-08T16:41:57;24.70;1.00
516;DHT22;244;48.508;9.052;2023-10-08T16:44:24;24.50;1.00
516;DHT22;244;48.508;9.052;2023-10-08T16:46:51;24.40;1.00
516;DHT22;244;48.508;9.052;2023-10-08T16:49:18;24.20;1.00
516;DHT22;244;48.508;9.052;2023-10-08T16:51:49;24.00;1.00
516;DHT22;244;48.508;9.052;2023-10-08T16:54:16;23.90;1.00
516;DHT22;244;48.508;9.052;2023-10-08T16:56:46;23.70;1.00
516;DHT22;244;48.508;9.052;2023-10-08T16:59:14;23.50;1.00
516;DHT22;244;48.508;9.052;2023-10-08T17:01:42;23.40;1.00
516;DHT22;244;48.508;9.052;2023-10-08T17:04:09;23.20;1.00
516;DHT22;244;48.508;9.052;2023-10-08T17:06:37;23.10;1.00
516;DHT22;244;48.508;9.052;2023-10-08T17:09:07;23.00;1.00
516;DHT22;244;48.508;9.052;2023-10-08T17:11:45;22.80;1.00
516;DHT22;244;48.508;9.052;2023-10-08T17:14:15;22.70;1.00